KVCB

Details ICAO KVCB
Name NUT TREE
Region United States
Timezone America/Los_Angeles (UTC-8.0)
Plans Departing 17
Arriving 10
Stats Elevation 117 ft / 36 m (AMSL)
Location 38.377778° -121.961577°
Runways 1
Magnetic Variation 13.564° E
Sunrise 2017-12-17 15:20:39 UTC / 2017-12-17 07:20:39 Local
Sunset 2017-12-18 00:50:21 UTC / 2017-12-17 16:50:21 Local
Advertisement - Login to hide

Runways

ID Width Length Bearing (true) Bearing (mag) Surface Threshold Offset Overrun Length
02 75 ft / 23 m 4,700 ft / 1,433 m 33.55° 19.99° Asphalt 0 ft / 0 m 350 ft / 107 m
20 75 ft / 23 m 4,700 ft / 1,433 m 213.56° 200.00° Asphalt 0 ft / 0 m 0 ft / 0 m

Map

Weather


0- 5 10 15 20 25 30 35+ Temperature / ° C

Clouds and Precipitation
Forecast for 2017-12-18 00:00 UTC. Updated 20 minutes ago

Ground ~20,000 ft ~40,000 ft Winds

METAR

KVCB 172053Z AUTO 03010KT 10SM CLR 18/M05 A3003 RMK AO2 SLP167 T01831050 58015

TAF

Not found

Frequencies

Recorded 134.75 MHz ASOS
Approach 128.40 MHz TRAVIS APP/DEP
Unicom 122.70 MHz CTAF/UNICOM
Warning: Do not use this data for real-world aviation or navigation. No guarantee of current accuracy is given.